sensor_id;sensor_type;location;lat;lon;timestamp;P1;durP1;ratioP1;P2;durP2;ratioP2
10440;SDS011;5268;49.346;9.522;2023-04-08T03:07:37;6.95;;;6.03;;
10440;SDS011;5268;49.346;9.522;2023-04-08T03:12:39;6.70;;;6.00;;
10440;SDS011;5268;49.346;9.522;2023-04-08T03:17:42;7.97;;;6.30;;
10440;SDS011;5268;49.346;9.522;2023-04-08T03:22:45;8.07;;;6.80;;
10440;SDS011;5268;49.346;9.522;2023-04-08T03:27:47;8.38;;;6.80;;
10440;SDS011;5268;49.346;9.522;2023-04-08T03:32:50;7.70;;;6.47;;
10440;SDS011;5268;49.346;9.522;2023-04-08T03:37:53;14.98;;;12.68;;
10440;SDS011;5268;49.346;9.522;2023-04-08T03:42:55;9.57;;;7.82;;
10440;SDS011;5268;49.346;9.522;2023-04-08T03:47:57;8.43;;;6.60;;
10440;SDS011;5268;49.346;9.522;2023-04-08T03:53:01;7.13;;;6.35;;
10440;SDS011;5268;49.346;9.522;2023-04-08T03:58:03;7.43;;;6.57;;
10440;SDS011;5268;49.346;9.522;2023-04-08T04:03:05;8.65;;;6.30;;
10440;SDS011;5268;49.346;9.522;2023-04-08T04:08:09;7.35;;;6.55;;
10440;SDS011;5268;49.346;9.522;2023-04-08T04:13:11;8.43;;;6.18;;
10440;SDS011;5268;49.346;9.522;2023-04-08T04:18:13;7.60;;;6.32;;
10440;SDS011;5268;49.346;9.522;2023-04-08T04:23:16;8.35;;;6.57;;
10440;SDS011;5268;49.346;9.522;2023-04-08T04:28:18;8.60;;;6.35;;
10440;SDS011;5268;49.346;9.522;2023-04-08T04:33:21;7.65;;;6.82;;
10440;SDS011;5268;49.346;9.522;2023-04-08T04:38:24;9.13;;;7.95;;
10440;SDS011;5268;49.346;9.522;2023-04-08T04:43:27;8.52;;;6.88;;
10440;SDS011;5268;49.346;9.522;2023-04-08T04:48:29;7.90;;;7.07;;
10440;SDS011;5268;49.346;9.522;2023-04-08T04:53:32;7.57;;;6.78;;
10440;SDS011;5268;49.346;9.522;2023-04-08T04:58:34;8.80;;;7.45;;
10440;SDS011;5268;49.346;9.522;2023-04-08T05:03:36;8.18;;;6.85;;
10440;SDS011;5268;49.346;9.522;2023-04-08T05:08:40;8.35;;;7.30;;
10440;SDS011;5268;49.346;9.522;2023-04-08T05:13:42;9.73;;;7.70;;
10440;SDS011;5268;49.346;9.522;2023-04-08T05:18:44;8.82;;;7.60;;
10440;SDS011;5268;49.346;9.522;2023-04-08T05:23:47;9.20;;;8.07;;
10440;SDS011;5268;49.346;9.522;2023-04-08T05:28:50;10.10;;;7.32;;
10440;SDS011;5268;49.346;9.522;2023-04-08T05:33:52;9.55;;;7.68;;
10440;SDS011;5268;49.346;9.522;2023-04-08T05:38:55;8.60;;;7.35;;
10440;SDS011;5268;49.346;9.522;2023-04-08T05:43:58;10.88;;;9.23;;
10440;SDS011;5268;49.346;9.522;2023-04-08T05:49:00;9.32;;;8.02;;
10440;SDS011;5268;49.346;9.522;2023-04-08T05:54:03;8.65;;;7.75;;
10440;SDS011;5268;49.346;9.522;2023-04-08T05:59:05;9.05;;;7.75;;
10440;SDS011;5268;49.346;9.522;2023-04-08T06:04:07;11.80;;;8.88;;
10440;SDS011;5268;49.346;9.522;2023-04-08T06:09:11;12.68;;;11.27;;
10440;SDS011;5268;49.346;9.522;2023-04-08T06:14:13;11.05;;;9.85;;
10440;SDS011;5268;49.346;9.522;2023-04-08T06:19:15;12.90;;;10.60;;
10440;SDS011;5268;49.346;9.522;2023-04-08T06:24:18;12.52;;;10.07;;
10440;SDS011;5268;49.346;9.522;2023-04-08T06:29:21;11.40;;;9.32;;
10440;SDS011;5268;49.346;9.522;2023-04-08T06:34:23;12.95;;;11.30;;
10440;SDS011;5268;49.346;9.522;2023-04-08T06:39:27;10.80;;;9.43;;
10440;SDS011;5268;49.346;9.522;2023-04-08T06:44:29;10.02;;;8.75;;
10440;SDS011;5268;49.346;9.522;2023-04-08T06:49:31;9.68;;;8.68;;
10440;SDS011;5268;49.346;9.522;2023-04-08T06:54:34;11.02;;;9.65;;
10440;SDS011;5268;49.346;9.522;2023-04-08T06:59:36;12.77;;;11.07;;
10440;SDS011;5268;49.346;9.522;2023-04-08T07:04:38;9.32;;;8.25;;
10440;SDS011;5268;49.346;9.522;2023-04-08T07:09:42;9.52;;;8.52;;
10440;SDS011;5268;49.346;9.522;2023-04-08T07:14:45;10.75;;;8.90;;
10440;SDS011;5268;49.346;9.522;2023-04-08T07:19:47;9.85;;;8.50;;
10440;SDS011;5268;49.346;9.522;2023-04-08T07:24:51;9.13;;;7.95;;
10440;SDS011;5268;49.346;9.522;2023-04-08T07:29:53;9.90;;;8.85;;
10440;SDS011;5268;49.346;9.522;2023-04-08T07:34:55;9.98;;;8.90;;
10440;SDS011;5268;49.346;9.522;2023-04-08T07:40:00;10.57;;;8.90;;
10440;SDS011;5268;49.346;9.522;2023-04-08T07:45:02;9.60;;;8.60;;
10440;SDS011;5268;49.346;9.522;2023-04-08T07:50:05;10.85;;;9.00;;
10440;SDS011;5268;49.346;9.522;2023-04-08T07:55:10;10.38;;;9.25;;
10440;SDS011;5268;49.346;9.522;2023-04-08T08:00:13;9.55;;;8.63;;
10440;SDS011;5268;49.346;9.522;2023-04-08T08:05:20;11.50;;;9.43;;
10440;SDS011;5268;49.346;9.522;2023-04-08T08:10:24;10.60;;;8.50;;
10440;SDS011;5268;49.346;9.522;2023-04-08T08:15:26;9.25;;;8.27;;
10440;SDS011;5268;49.346;9.522;2023-04-08T08:20:28;9.32;;;7.93;;
10440;SDS011;5268;49.346;9.522;2023-04-08T08:25:32;10.38;;;8.30;;
10440;SDS011;5268;49.346;9.522;2023-04-08T08:30:34;9.27;;;8.38;;
10440;SDS011;5268;49.346;9.522;2023-04-08T08:35:37;9.32;;;8.32;;
10440;SDS011;5268;49.346;9.522;2023-04-08T08:40:41;8.88;;;7.97;;
10440;SDS011;5268;49.346;9.522;2023-04-08T08:45:43;8.25;;;6.82;;
10440;SDS011;5268;49.346;9.522;2023-04-08T08:50:45;6.95;;;6.22;;
10440;SDS011;5268;49.346;9.522;2023-04-08T08:55:49;7.65;;;6.85;;
10440;SDS011;5268;49.346;9.522;2023-04-08T09:00:51;7.38;;;6.30;;
10440;SDS011;5268;49.346;9.522;2023-04-08T09:05:54;7.47;;;6.72;;
10440;SDS011;5268;49.346;9.522;2023-04-08T09:11:11;7.55;;;6.78;;
10440;SDS011;5268;49.346;9.522;2023-04-08T09:16:14;8.32;;;6.65;;
10440;SDS011;5268;49.346;9.522;2023-04-08T09:21:18;8.35;;;6.65;;
10440;SDS011;5268;49.346;9.522;2023-04-08T09:26:25;8.60;;;6.45;;
10440;SDS011;5268;49.346;9.522;2023-04-08T09:31:27;7.55;;;6.80;;
10440;SDS011;5268;49.346;9.522;2023-04-08T09:36:31;7.85;;;7.05;;
10440;SDS011;5268;49.346;9.522;2023-04-08T09:41:35;8.02;;;6.45;;
10440;SDS011;5268;49.346;9.522;2023-04-08T09:46:39;8.73;;;6.50;;
10440;SDS011;5268;49.346;9.522;2023-04-08T09:51:48;9.93;;;6.28;;
10440;SDS011;5268;49.346;9.522;2023-04-08T09:57:03;6.00;;;5.40;;
10440;SDS011;5268;49.346;9.522;2023-04-08T10:02:08;6.47;;;5.47;;
10440;SDS011;5268;49.346;9.522;2023-04-08T10:07:15;7.38;;;5.47;;
10440;SDS011;5268;49.346;9.522;2023-04-08T10:12:19;5.55;;;4.93;;
10440;SDS011;5268;49.346;9.522;2023-04-08T10:17:24;5.22;;;4.70;;
10440;SDS011;5268;49.346;9.522;2023-04-08T10:22:46;5.60;;;5.00;;
10440;SDS011;5268;49.346;9.522;2023-04-08T10:27:57;5.53;;;4.97;;
10440;SDS011;5268;49.346;9.522;2023-04-08T10:32:59;10.20;;;8.07;;
10440;SDS011;5268;49.346;9.522;2023-04-08T10:38:02;5.60;;;4.95;;
10440;SDS011;5268;49.346;9.522;2023-04-08T10:43:06;5.43;;;4.90;;
10440;SDS011;5268;49.346;9.522;2023-04-08T10:48:12;7.32;;;5.40;;
10440;SDS011;5268;49.346;9.522;2023-04-08T10:53:16;5.93;;;5.05;;
10440;SDS011;5268;49.346;9.522;2023-04-08T10:58:20;7.65;;;5.35;;
10440;SDS011;5268;49.346;9.522;2023-04-08T11:03:22;5.60;;;5.00;;
10440;SDS011;5268;49.346;9.522;2023-04-08T11:08:27;6.20;;;5.40;;
10440;SDS011;5268;49.346;9.522;2023-04-08T11:13:31;5.50;;;4.80;;
10440;SDS011;5268;49.346;9.522;2023-04-08T11:18:34;5.93;;;5.32;;
10440;SDS011;5268;49.346;9.522;2023-04-08T11:23:37;5.80;;;5.18;;
10440;SDS011;5268;49.346;9.522;2023-04-08T11:28:41;5.90;;;5.30;;
10440;SDS011;5268;49.346;9.522;2023-04-08T11:33:45;6.78;;;5.35;;
10440;SDS011;5268;49.346;9.522;2023-04-08T11:38:48;5.93;;;5.25;;
10440;SDS011;5268;49.346;9.522;2023-04-08T11:43:52;5.75;;;5.03;;
10440;SDS011;5268;49.346;9.522;2023-04-08T11:48:58;6.22;;;5.35;;
10440;SDS011;5268;49.346;9.522;2023-04-08T11:54:03;6.22;;;4.93;;
10440;SDS011;5268;49.346;9.522;2023-04-08T11:59:08;6.22;;;5.60;;
10440;SDS011;5268;49.346;9.522;2023-04-08T12:04:11;7.07;;;5.70;;
10440;SDS011;5268;49.346;9.522;2023-04-08T12:09:13;5.50;;;5.00;;
10440;SDS011;5268;49.346;9.522;2023-04-08T12:14:17;6.00;;;5.40;;
10440;SDS011;5268;49.346;9.522;2023-04-08T12:19:21;6.03;;;5.43;;
10440;SDS011;5268;49.346;9.522;2023-04-08T12:24:23;5.50;;;5.00;;
10440;SDS011;5268;49.346;9.522;2023-04-08T12:29:27;5.50;;;5.00;;
10440;SDS011;5268;49.346;9.522;2023-04-08T12:34:29;6.47;;;5.00;;
10440;SDS011;5268;49.346;9.522;2023-04-08T12:39:31;6.32;;;4.78;;
10440;SDS011;5268;49.346;9.522;2023-04-08T12:44:35;5.53;;;4.72;;
10440;SDS011;5268;49.346;9.522;2023-04-08T12:49:37;5.00;;;4.50;;
10440;SDS011;5268;49.346;9.522;2023-04-08T12:54:39;4.93;;;4.43;;
10440;SDS011;5268;49.346;9.522;2023-04-08T12:59:43;8.07;;;5.10;;
10440;SDS011;5268;49.346;9.522;2023-04-08T13:04:45;5.72;;;4.88;;
10440;SDS011;5268;49.346;9.522;2023-04-08T13:09:48;5.13;;;4.47;;
10440;SDS011;5268;49.346;9.522;2023-04-08T13:14:52;4.30;;;3.90;;
10440;SDS011;5268;49.346;9.522;2023-04-08T13:19:54;7.03;;;5.60;;
10440;SDS011;5268;49.346;9.522;2023-04-08T13:24:56;11.30;;;8.75;;
10440;SDS011;5268;49.346;9.522;2023-04-08T13:29:59;4.07;;;3.67;;
10440;SDS011;5268;49.346;9.522;2023-04-08T13:35:02;4.35;;;3.78;;
10440;SDS011;5268;49.346;9.522;2023-04-08T13:40:06;3.67;;;3.30;;
10440;SDS011;5268;49.346;9.522;2023-04-08T13:45:10;5.63;;;4.10;;
10440;SDS011;5268;49.346;9.522;2023-04-08T13:50:12;4.20;;;3.80;;
10440;SDS011;5268;49.346;9.522;2023-04-08T13:55:14;4.20;;;3.80;;
10440;SDS011;5268;49.346;9.522;2023-04-08T14:00:18;4.90;;;4.40;;
10440;SDS011;5268;49.346;9.522;2023-04-08T14:05:20;4.95;;;4.40;;
10440;SDS011;5268;49.346;9.522;2023-04-08T14:10:22;3.75;;;3.45;;
10440;SDS011;5268;49.346;9.522;2023-04-08T14:15:25;3.83;;;3.40;;
10440;SDS011;5268;49.346;9.522;2023-04-08T14:20:28;4.65;;;4.15;;
10440;SDS011;5268;49.346;9.522;2023-04-08T14:25:31;4.38;;;3.60;;
10440;SDS011;5268;49.346;9.522;2023-04-08T14:30:34;4.20;;;3.80;;
10440;SDS011;5268;49.346;9.522;2023-04-08T14:35:36;4.22;;;3.83;;
10440;SDS011;5268;49.346;9.522;2023-04-08T14:40:39;8.38;;;5.22;;
10440;SDS011;5268;49.346;9.522;2023-04-08T14:45:42;4.30;;;3.90;;
10440;SDS011;5268;49.346;9.522;2023-04-08T14:50:44;5.03;;;4.00;;
10440;SDS011;5268;49.346;9.522;2023-04-08T14:55:46;4.75;;;4.35;;
10440;SDS011;5268;49.346;9.522;2023-04-08T15:00:50;4.45;;;3.97;;
10440;SDS011;5268;49.346;9.522;2023-04-08T15:05:52;4.68;;;4.28;;
10440;SDS011;5268;49.346;9.522;2023-04-08T15:10:55;4.90;;;3.88;;
10440;SDS011;5268;49.346;9.522;2023-04-08T15:15:59;4.57;;;4.00;;
10440;SDS011;5268;49.346;9.522;2023-04-08T15:21:01;4.35;;;3.92;;
10440;SDS011;5268;49.346;9.522;2023-04-08T15:26:03;4.70;;;3.78;;
10440;SDS011;5268;49.346;9.522;2023-04-08T15:31:07;4.70;;;4.20;;
10440;SDS011;5268;49.346;9.522;2023-04-08T15:36:09;4.25;;;3.65;;
10440;SDS011;5268;49.346;9.522;2023-04-08T15:41:16;4.45;;;4.05;;
10440;SDS011;5268;49.346;9.522;2023-04-08T15:46:20;4.57;;;4.18;;
10440;SDS011;5268;49.346;9.522;2023-04-08T15:51:22;5.13;;;4.20;;
10440;SDS011;5268;49.346;9.522;2023-04-08T15:56:26;4.93;;;3.97;;
10440;SDS011;5268;49.346;9.522;2023-04-08T16:01:30;4.28;;;3.88;;
10440;SDS011;5268;49.346;9.522;2023-04-08T16:06:32;3.70;;;3.40;;
10440;SDS011;5268;49.346;9.522;2023-04-08T16:11:34;4.65;;;3.70;;
10440;SDS011;5268;49.346;9.522;2023-04-08T16:16:38;4.05;;;3.70;;
10440;SDS011;5268;49.346;9.522;2023-04-08T16:21:40;3.55;;;3.25;;
10440;SDS011;5268;49.346;9.522;2023-04-08T16:26:42;3.80;;;3.40;;
10440;SDS011;5268;49.346;9.522;2023-04-08T16:31:46;3.28;;;2.97;;
10440;SDS011;5268;49.346;9.522;2023-04-08T16:36:48;3.40;;;3.08;;
10440;SDS011;5268;49.346;9.522;2023-04-08T16:41:50;3.83;;;3.42;;
10440;SDS011;5268;49.346;9.522;2023-04-08T16:46:54;3.50;;;3.20;;
10440;SDS011;5268;49.346;9.522;2023-04-08T16:51:56;4.32;;;3.40;;
10440;SDS011;5268;49.346;9.522;2023-04-08T16:56:58;4.25;;;3.80;;
10440;SDS011;5268;49.346;9.522;2023-04-08T17:02:01;12.75;;;11.40;;
10440;SDS011;5268;49.346;9.522;2023-04-08T17:07:03;5.22;;;4.72;;
10440;SDS011;5268;49.346;9.522;2023-04-08T17:12:05;4.20;;;3.80;;
10440;SDS011;5268;49.346;9.522;2023-04-08T17:17:09;4.05;;;3.28;;
10440;SDS011;5268;49.346;9.522;2023-04-08T17:22:11;4.07;;;3.50;;
10440;SDS011;5268;49.346;9.522;2023-04-08T17:27:13;4.25;;;3.40;;
10440;SDS011;5268;49.346;9.522;2023-04-08T17:32:16;4.05;;;3.50;;
10440;SDS011;5268;49.346;9.522;2023-04-08T17:37:18;4.88;;;4.15;;
10440;SDS011;5268;49.346;9.522;2023-04-08T17:42:20;4.00;;;3.60;;
10440;SDS011;5268;49.346;9.522;2023-04-08T17:47:24;4.13;;;3.20;;
10440;SDS011;5268;49.346;9.522;2023-04-08T17:52:26;7.15;;;6.32;;
10440;SDS011;5268;49.346;9.522;2023-04-08T17:57:28;4.20;;;3.78;;
10440;SDS011;5268;49.346;9.522;2023-04-08T18:02:32;3.83;;;3.47;;
10440;SDS011;5268;49.346;9.522;2023-04-08T18:07:35;6.65;;;5.30;;
10440;SDS011;5268;49.346;9.522;2023-04-08T18:12:37;4.72;;;4.07;;
10440;SDS011;5268;49.346;9.522;2023-04-08T18:17:41;4.20;;;3.45;;
10440;SDS011;5268;49.346;9.522;2023-04-08T18:22:43;4.38;;;3.63;;
10440;SDS011;5268;49.346;9.522;2023-04-08T18:27:45;10.02;;;4.78;;
10440;SDS011;5268;49.346;9.522;2023-04-08T18:32:48;4.93;;;4.00;;
10440;SDS011;5268;49.346;9.522;2023-04-08T18:37:50;6.95;;;4.53;;
10440;SDS011;5268;49.346;9.522;2023-04-08T18:42:52;6.32;;;5.20;;
10440;SDS011;5268;49.346;9.522;2023-04-08T18:47:56;5.18;;;4.15;;
10440;SDS011;5268;49.346;9.522;2023-04-08T18:52:58;5.13;;;4.50;;
10440;SDS011;5268;49.346;9.522;2023-04-08T18:58:00;4.88;;;4.10;;
10440;SDS011;5268;49.346;9.522;2023-04-08T19:03:03;4.35;;;3.95;;
10440;SDS011;5268;49.346;9.522;2023-04-08T19:08:05;7.00;;;5.13;;
10440;SDS011;5268;49.346;9.522;2023-04-08T19:13:08;5.63;;;4.90;;
10440;SDS011;5268;49.346;9.522;2023-04-08T19:18:11;5.85;;;5.00;;
10440;SDS011;5268;49.346;9.522;2023-04-08T19:23:13;8.85;;;7.45;;
10440;SDS011;5268;49.346;9.522;2023-04-08T19:28:15;6.85;;;5.57;;
10440;SDS011;5268;49.346;9.522;2023-04-08T19:33:18;8.35;;;7.20;;
10440;SDS011;5268;49.346;9.522;2023-04-08T19:38:20;6.53;;;5.40;;
10440;SDS011;5268;49.346;9.522;2023-04-08T19:43:23;6.00;;;4.93;;
10440;SDS011;5268;49.346;9.522;2023-04-08T19:48:26;6.03;;;5.43;;
10440;SDS011;5268;49.346;9.522;2023-04-08T19:53:29;6.10;;;5.10;;
10440;SDS011;5268;49.346;9.522;2023-04-08T19:58:31;6.65;;;5.53;;
10440;SDS011;5268;49.346;9.522;2023-04-08T20:03:34;6.95;;;6.10;;
10440;SDS011;5268;49.346;9.522;2023-04-08T20:08:36;7.32;;;5.97;;
10440;SDS011;5268;49.346;9.522;2023-04-08T20:13:38;7.47;;;5.70;;
10440;SDS011;5268;49.346;9.522;2023-04-08T20:18:41;6.75;;;5.45;;
10440;SDS011;5268;49.346;9.522;2023-04-08T20:23:43;5.95;;;5.20;;
10440;SDS011;5268;49.346;9.522;2023-04-08T20:28:46;6.82;;;5.25;;
10440;SDS011;5268;49.346;9.522;2023-04-08T20:33:49;6.97;;;5.65;;
10440;SDS011;5268;49.346;9.522;2023-04-08T20:38:52;6.60;;;5.30;;
10440;SDS011;5268;49.346;9.522;2023-04-08T20:43:54;6.57;;;5.47;;
10440;SDS011;5268;49.346;9.522;2023-04-08T20:48:58;6.80;;;5.70;;
10440;SDS011;5268;49.346;9.522;2023-04-08T20:54:01;7.18;;;5.95;;
10440;SDS011;5268;49.346;9.522;2023-04-08T20:59:03;8.10;;;5.97;;
10440;SDS011;5268;49.346;9.522;2023-04-08T21:04:07;7.13;;;5.50;;
10440;SDS011;5268;49.346;9.522;2023-04-08T21:09:09;6.45;;;5.40;;
10440;SDS011;5268;49.346;9.522;2023-04-08T21:14:13;6.97;;;5.72;;
10440;SDS011;5268;49.346;9.522;2023-04-08T21:19:17;9.77;;;5.75;;
10440;SDS011;5268;49.346;9.522;2023-04-08T21:24:19;8.02;;;5.85;;
10440;SDS011;5268;49.346;9.522;2023-04-08T21:29:21;8.07;;;5.93;;
10440;SDS011;5268;49.346;9.522;2023-04-08T21:34:25;8.77;;;6.13;;
10440;SDS011;5268;49.346;9.522;2023-04-08T21:39:27;9.10;;;6.70;;
10440;SDS011;5268;49.346;9.522;2023-04-08T21:44:29;11.13;;;6.13;;
10440;SDS011;5268;49.346;9.522;2023-04-08T21:49:32;7.43;;;5.88;;
10440;SDS011;5268;49.346;9.522;2023-04-08T21:54:34;8.35;;;6.28;;
